sensor_id;sensor_type;location;lat;lon;timestamp;P1;durP1;ratioP1;P2;durP2;ratioP2
10281;SDS011;5186;59.472;18.048;2023-07-02T00:01:12;2.23;;;1.87;;
10281;SDS011;5186;59.472;18.048;2023-07-02T00:03:38;1.90;;;1.80;;
10281;SDS011;5186;59.472;18.048;2023-07-02T00:06:04;1.80;;;1.70;;
10281;SDS011;5186;59.472;18.048;2023-07-02T00:08:30;2.57;;;1.80;;
10281;SDS011;5186;59.472;18.048;2023-07-02T00:10:55;1.90;;;1.80;;
10281;SDS011;5186;59.472;18.048;2023-07-02T00:13:21;2.20;;;1.50;;
10281;SDS011;5186;59.472;18.048;2023-07-02T00:15:47;1.83;;;1.73;;
10281;SDS011;5186;59.472;18.048;2023-07-02T00:18:12;1.63;;;1.53;;
10281;SDS011;5186;59.472;18.048;2023-07-02T00:20:41;1.90;;;1.80;;
10281;SDS011;5186;59.472;18.048;2023-07-02T00:23:06;2.63;;;1.80;;
10281;SDS011;5186;59.472;18.048;2023-07-02T00:25:34;2.70;;;1.70;;
10281;SDS011;5186;59.472;18.048;2023-07-02T00:28:03;2.30;;;1.67;;
10281;SDS011;5186;59.472;18.048;2023-07-02T00:30:28;1.73;;;1.50;;
10281;SDS011;5186;59.472;18.048;2023-07-02T00:32:55;3.50;;;1.93;;
10281;SDS011;5186;59.472;18.048;2023-07-02T00:35:20;2.10;;;1.90;;
10281;SDS011;5186;59.472;18.048;2023-07-02T00:37:48;2.00;;;1.90;;
10281;SDS011;5186;59.472;18.048;2023-07-02T00:40:16;2.40;;;1.80;;
10281;SDS011;5186;59.472;18.048;2023-07-02T00:42:46;1.87;;;1.63;;
10281;SDS011;5186;59.472;18.048;2023-07-02T00:45:12;2.07;;;1.97;;
10281;SDS011;5186;59.472;18.048;2023-07-02T00:47:40;1.80;;;1.70;;
10281;SDS011;5186;59.472;18.048;2023-07-02T00:50:07;2.30;;;1.90;;
10281;SDS011;5186;59.472;18.048;2023-07-02T00:52:35;2.50;;;1.80;;
10281;SDS011;5186;59.472;18.048;2023-07-02T00:55:00;1.80;;;1.70;;
10281;SDS011;5186;59.472;18.048;2023-07-02T00:57:27;2.10;;;1.90;;
10281;SDS011;5186;59.472;18.048;2023-07-02T00:59:54;2.20;;;2.00;;
10281;SDS011;5186;59.472;18.048;2023-07-02T01:02:22;1.90;;;1.70;;
10281;SDS011;5186;59.472;18.048;2023-07-02T01:04:50;2.97;;;2.07;;
10281;SDS011;5186;59.472;18.048;2023-07-02T01:07:22;2.30;;;1.80;;
10281;SDS011;5186;59.472;18.048;2023-07-02T01:09:48;2.43;;;2.23;;
10281;SDS011;5186;59.472;18.048;2023-07-02T01:12:14;2.20;;;2.00;;
10281;SDS011;5186;59.472;18.048;2023-07-02T01:14:43;2.30;;;2.10;;
10281;SDS011;5186;59.472;18.048;2023-07-02T01:17:16;2.40;;;2.20;;
10281;SDS011;5186;59.472;18.048;2023-07-02T01:22:24;2.17;;;1.97;;
10281;SDS011;5186;59.472;18.048;2023-07-02T01:24:53;2.33;;;2.10;;
10281;SDS011;5186;59.472;18.048;2023-07-02T01:27:19;2.60;;;2.33;;
10281;SDS011;5186;59.472;18.048;2023-07-02T01:29:45;2.30;;;2.10;;
10281;SDS011;5186;59.472;18.048;2023-07-02T01:32:12;2.60;;;2.33;;
10281;SDS011;5186;59.472;18.048;2023-07-02T01:34:38;2.83;;;2.30;;
10281;SDS011;5186;59.472;18.048;2023-07-02T01:37:04;2.77;;;2.30;;
10281;SDS011;5186;59.472;18.048;2023-07-02T01:39:30;2.13;;;2.00;;
10281;SDS011;5186;59.472;18.048;2023-07-02T01:42:07;2.50;;;2.30;;
10281;SDS011;5186;59.472;18.048;2023-07-02T01:44:34;3.30;;;2.30;;
10281;SDS011;5186;59.472;18.048;2023-07-02T01:47:01;2.80;;;2.47;;
10281;SDS011;5186;59.472;18.048;2023-07-02T01:49:27;2.03;;;1.90;;
10281;SDS011;5186;59.472;18.048;2023-07-02T01:51:53;2.73;;;2.53;;
10281;SDS011;5186;59.472;18.048;2023-07-02T01:54:20;2.10;;;2.00;;
10281;SDS011;5186;59.472;18.048;2023-07-02T01:56:46;3.13;;;1.93;;
10281;SDS011;5186;59.472;18.048;2023-07-02T01:59:12;2.77;;;2.23;;
10281;SDS011;5186;59.472;18.048;2023-07-02T02:01:38;2.47;;;2.27;;
10281;SDS011;5186;59.472;18.048;2023-07-02T02:04:07;2.53;;;2.33;;
10281;SDS011;5186;59.472;18.048;2023-07-02T02:06:34;2.30;;;2.10;;
10281;SDS011;5186;59.472;18.048;2023-07-02T02:09:00;3.60;;;2.30;;
10281;SDS011;5186;59.472;18.048;2023-07-02T02:11:25;2.37;;;2.17;;
10281;SDS011;5186;59.472;18.048;2023-07-02T02:13:51;2.50;;;2.30;;
10281;SDS011;5186;59.472;18.048;2023-07-02T02:16:17;2.87;;;2.20;;
10281;SDS011;5186;59.472;18.048;2023-07-02T02:18:43;2.30;;;2.10;;
10281;SDS011;5186;59.472;18.048;2023-07-02T02:21:08;2.40;;;2.20;;
10281;SDS011;5186;59.472;18.048;2023-07-02T02:23:34;2.30;;;2.10;;
10281;SDS011;5186;59.472;18.048;2023-07-02T02:26:00;3.20;;;2.40;;
10281;SDS011;5186;59.472;18.048;2023-07-02T02:28:25;3.00;;;2.43;;
10281;SDS011;5186;59.472;18.048;2023-07-02T02:30:51;2.87;;;2.40;;
10281;SDS011;5186;59.472;18.048;2023-07-02T02:33:17;2.50;;;2.30;;
10281;SDS011;5186;59.472;18.048;2023-07-02T02:35:42;3.30;;;2.20;;
10281;SDS011;5186;59.472;18.048;2023-07-02T02:38:08;2.70;;;2.20;;
10281;SDS011;5186;59.472;18.048;2023-07-02T02:40:33;5.10;;;2.60;;
10281;SDS011;5186;59.472;18.048;2023-07-02T02:42:59;2.93;;;2.73;;
10281;SDS011;5186;59.472;18.048;2023-07-02T02:45:25;3.50;;;2.30;;
10281;SDS011;5186;59.472;18.048;2023-07-02T02:47:51;2.70;;;2.50;;
10281;SDS011;5186;59.472;18.048;2023-07-02T02:50:16;5.30;;;2.43;;
10281;SDS011;5186;59.472;18.048;2023-07-02T02:52:42;3.30;;;2.23;;
10281;SDS011;5186;59.472;18.048;2023-07-02T02:55:09;2.43;;;2.17;;
10281;SDS011;5186;59.472;18.048;2023-07-02T02:57:35;4.23;;;2.40;;
10281;SDS011;5186;59.472;18.048;2023-07-02T03:00:01;2.93;;;2.67;;
10281;SDS011;5186;59.472;18.048;2023-07-02T03:02:27;2.57;;;2.37;;
10281;SDS011;5186;59.472;18.048;2023-07-02T03:04:53;3.03;;;2.60;;
10281;SDS011;5186;59.472;18.048;2023-07-02T03:07:19;2.90;;;2.53;;
10281;SDS011;5186;59.472;18.048;2023-07-02T03:09:45;2.50;;;2.30;;
10281;SDS011;5186;59.472;18.048;2023-07-02T03:12:10;3.60;;;2.80;;
10281;SDS011;5186;59.472;18.048;2023-07-02T03:14:36;3.77;;;2.20;;
10281;SDS011;5186;59.472;18.048;2023-07-02T03:17:02;3.43;;;2.60;;
10281;SDS011;5186;59.472;18.048;2023-07-02T03:19:28;3.40;;;2.20;;
10281;SDS011;5186;59.472;18.048;2023-07-02T03:21:53;2.50;;;2.27;;
10281;SDS011;5186;59.472;18.048;2023-07-02T03:24:19;3.00;;;2.70;;
10281;SDS011;5186;59.472;18.048;2023-07-02T03:26:45;2.53;;;2.33;;
10281;SDS011;5186;59.472;18.048;2023-07-02T03:29:11;2.93;;;2.67;;
10281;SDS011;5186;59.472;18.048;2023-07-02T03:31:37;3.37;;;2.30;;
10281;SDS011;5186;59.472;18.048;2023-07-02T03:34:07;4.53;;;2.47;;
10281;SDS011;5186;59.472;18.048;2023-07-02T03:36:35;3.63;;;2.67;;
10281;SDS011;5186;59.472;18.048;2023-07-02T03:39:01;3.37;;;2.73;;
10281;SDS011;5186;59.472;18.048;2023-07-02T03:41:27;3.73;;;2.67;;
10281;SDS011;5186;59.472;18.048;2023-07-02T03:43:53;3.20;;;2.30;;
10281;SDS011;5186;59.472;18.048;2023-07-02T03:46:18;3.20;;;2.90;;
10281;SDS011;5186;59.472;18.048;2023-07-02T03:48:44;4.20;;;3.20;;
10281;SDS011;5186;59.472;18.048;2023-07-02T03:51:10;3.90;;;2.80;;
10281;SDS011;5186;59.472;18.048;2023-07-02T03:53:39;3.93;;;3.37;;
10281;SDS011;5186;59.472;18.048;2023-07-02T03:56:07;2.97;;;2.63;;
10281;SDS011;5186;59.472;18.048;2023-07-02T03:58:33;5.47;;;2.80;;
10281;SDS011;5186;59.472;18.048;2023-07-02T04:00:59;3.60;;;2.77;;
10281;SDS011;5186;59.472;18.048;2023-07-02T04:03:25;3.87;;;2.77;;
10281;SDS011;5186;59.472;18.048;2023-07-02T04:05:50;3.67;;;3.07;;
10281;SDS011;5186;59.472;18.048;2023-07-02T04:08:16;3.83;;;3.00;;
10281;SDS011;5186;59.472;18.048;2023-07-02T04:10:42;2.90;;;2.70;;
10281;SDS011;5186;59.472;18.048;2023-07-02T04:13:07;4.43;;;2.80;;
10281;SDS011;5186;59.472;18.048;2023-07-02T04:15:33;3.60;;;2.80;;
10281;SDS011;5186;59.472;18.048;2023-07-02T04:18:00;5.50;;;3.10;;
10281;SDS011;5186;59.472;18.048;2023-07-02T04:20:26;3.63;;;3.33;;
10281;SDS011;5186;59.472;18.048;2023-07-02T04:22:53;4.43;;;3.03;;
10281;SDS011;5186;59.472;18.048;2023-07-02T04:25:19;3.53;;;3.10;;
10281;SDS011;5186;59.472;18.048;2023-07-02T04:27:45;3.03;;;2.70;;
10281;SDS011;5186;59.472;18.048;2023-07-02T04:30:10;3.70;;;2.87;;
10281;SDS011;5186;59.472;18.048;2023-07-02T04:32:37;3.83;;;2.77;;
10281;SDS011;5186;59.472;18.048;2023-07-02T04:35:06;3.07;;;2.77;;
10281;SDS011;5186;59.472;18.048;2023-07-02T04:37:33;2.97;;;2.40;;
10281;SDS011;5186;59.472;18.048;2023-07-02T04:39:59;3.33;;;3.03;;
10281;SDS011;5186;59.472;18.048;2023-07-02T04:42:25;3.07;;;2.60;;
10281;SDS011;5186;59.472;18.048;2023-07-02T04:44:52;3.30;;;3.00;;
10281;SDS011;5186;59.472;18.048;2023-07-02T04:47:19;3.40;;;3.10;;
10281;SDS011;5186;59.472;18.048;2023-07-02T04:49:45;3.00;;;2.70;;
10281;SDS011;5186;59.472;18.048;2023-07-02T04:52:11;2.73;;;2.50;;
10281;SDS011;5186;59.472;18.048;2023-07-02T04:54:36;3.77;;;2.87;;
10281;SDS011;5186;59.472;18.048;2023-07-02T04:57:02;3.13;;;2.80;;
10281;SDS011;5186;59.472;18.048;2023-07-02T04:59:28;3.83;;;2.70;;
10281;SDS011;5186;59.472;18.048;2023-07-02T05:01:54;3.33;;;2.60;;
10281;SDS011;5186;59.472;18.048;2023-07-02T05:04:20;3.70;;;2.63;;
10281;SDS011;5186;59.472;18.048;2023-07-02T05:06:45;4.07;;;2.70;;
10281;SDS011;5186;59.472;18.048;2023-07-02T05:09:11;3.77;;;2.47;;
10281;SDS011;5186;59.472;18.048;2023-07-02T05:11:36;2.97;;;2.77;;
10281;SDS011;5186;59.472;18.048;2023-07-02T05:14:02;3.00;;;2.70;;
10281;SDS011;5186;59.472;18.048;2023-07-02T05:16:28;3.53;;;2.70;;
10281;SDS011;5186;59.472;18.048;2023-07-02T05:18:54;3.17;;;2.63;;
10281;SDS011;5186;59.472;18.048;2023-07-02T05:21:19;3.10;;;2.60;;
10281;SDS011;5186;59.472;18.048;2023-07-02T05:23:45;3.40;;;2.77;;
10281;SDS011;5186;59.472;18.048;2023-07-02T05:26:12;3.20;;;2.80;;
10281;SDS011;5186;59.472;18.048;2023-07-02T05:28:37;3.73;;;2.50;;
10281;SDS011;5186;59.472;18.048;2023-07-02T05:31:03;3.17;;;2.70;;
10281;SDS011;5186;59.472;18.048;2023-07-02T05:33:28;3.83;;;2.90;;
10281;SDS011;5186;59.472;18.048;2023-07-02T05:35:56;3.37;;;2.80;;
10281;SDS011;5186;59.472;18.048;2023-07-02T05:38:21;3.00;;;2.70;;
10281;SDS011;5186;59.472;18.048;2023-07-02T05:40:47;3.30;;;2.43;;
10281;SDS011;5186;59.472;18.048;2023-07-02T05:43:12;3.53;;;2.47;;
10281;SDS011;5186;59.472;18.048;2023-07-02T05:45:38;2.73;;;2.53;;
10281;SDS011;5186;59.472;18.048;2023-07-02T05:48:04;3.03;;;2.70;;
10281;SDS011;5186;59.472;18.048;2023-07-02T05:50:30;3.27;;;2.47;;
10281;SDS011;5186;59.472;18.048;2023-07-02T05:52:55;2.83;;;2.53;;
10281;SDS011;5186;59.472;18.048;2023-07-02T05:55:21;2.80;;;2.60;;
10281;SDS011;5186;59.472;18.048;2023-07-02T05:57:46;3.37;;;2.67;;
10281;SDS011;5186;59.472;18.048;2023-07-02T06:00:12;3.03;;;2.60;;
10281;SDS011;5186;59.472;18.048;2023-07-02T06:02:38;7.27;;;2.90;;
10281;SDS011;5186;59.472;18.048;2023-07-02T06:05:04;3.47;;;2.30;;
10281;SDS011;5186;59.472;18.048;2023-07-02T06:07:30;3.93;;;2.70;;
10281;SDS011;5186;59.472;18.048;2023-07-02T06:09:55;3.30;;;2.70;;
10281;SDS011;5186;59.472;18.048;2023-07-02T06:12:21;3.23;;;2.93;;
10281;SDS011;5186;59.472;18.048;2023-07-02T06:14:47;3.90;;;2.53;;
10281;SDS011;5186;59.472;18.048;2023-07-02T06:17:12;3.30;;;2.57;;
10281;SDS011;5186;59.472;18.048;2023-07-02T06:19:38;3.50;;;2.63;;
10281;SDS011;5186;59.472;18.048;2023-07-02T06:22:04;3.10;;;2.80;;
10281;SDS011;5186;59.472;18.048;2023-07-02T06:24:30;3.37;;;2.70;;
10281;SDS011;5186;59.472;18.048;2023-07-02T06:26:56;3.53;;;2.80;;
10281;SDS011;5186;59.472;18.048;2023-07-02T06:29:22;3.20;;;2.90;;
10281;SDS011;5186;59.472;18.048;2023-07-02T06:31:48;2.60;;;2.40;;
10281;SDS011;5186;59.472;18.048;2023-07-02T06:34:14;3.73;;;2.87;;
10281;SDS011;5186;59.472;18.048;2023-07-02T06:36:40;2.83;;;2.60;;
10281;SDS011;5186;59.472;18.048;2023-07-02T06:39:06;3.00;;;2.50;;
10281;SDS011;5186;59.472;18.048;2023-07-02T06:41:33;2.93;;;2.63;;
10281;SDS011;5186;59.472;18.048;2023-07-02T06:43:59;3.10;;;2.80;;
10281;SDS011;5186;59.472;18.048;2023-07-02T06:46:25;3.77;;;2.67;;
10281;SDS011;5186;59.472;18.048;2023-07-02T06:48:50;4.07;;;2.67;;
10281;SDS011;5186;59.472;18.048;2023-07-02T06:51:16;7.60;;;2.80;;
10281;SDS011;5186;59.472;18.048;2023-07-02T06:53:44;4.67;;;3.10;;
10281;SDS011;5186;59.472;18.048;2023-07-02T06:56:09;3.53;;;3.07;;
10281;SDS011;5186;59.472;18.048;2023-07-02T06:58:35;2.90;;;2.60;;
10281;SDS011;5186;59.472;18.048;2023-07-02T07:01:01;2.73;;;2.43;;
10281;SDS011;5186;59.472;18.048;2023-07-02T07:03:27;3.07;;;2.77;;
10281;SDS011;5186;59.472;18.048;2023-07-02T07:05:53;4.20;;;2.80;;
10281;SDS011;5186;59.472;18.048;2023-07-02T07:08:19;3.83;;;2.77;;
10281;SDS011;5186;59.472;18.048;2023-07-02T07:10:44;3.07;;;2.77;;
10281;SDS011;5186;59.472;18.048;2023-07-02T07:13:10;3.87;;;2.50;;
10281;SDS011;5186;59.472;18.048;2023-07-02T07:15:37;4.70;;;3.10;;
10281;SDS011;5186;59.472;18.048;2023-07-02T07:18:03;2.80;;;2.60;;
10281;SDS011;5186;59.472;18.048;2023-07-02T07:20:29;2.93;;;2.70;;
10281;SDS011;5186;59.472;18.048;2023-07-02T07:22:56;3.93;;;3.30;;
10281;SDS011;5186;59.472;18.048;2023-07-02T07:25:22;3.13;;;2.90;;
10281;SDS011;5186;59.472;18.048;2023-07-02T07:27:47;3.23;;;2.77;;
10281;SDS011;5186;59.472;18.048;2023-07-02T07:30:13;4.20;;;2.87;;
10281;SDS011;5186;59.472;18.048;2023-07-02T07:32:39;3.87;;;2.73;;
10281;SDS011;5186;59.472;18.048;2023-07-02T07:35:06;5.20;;;2.80;;
10281;SDS011;5186;59.472;18.048;2023-07-02T07:37:32;2.60;;;2.40;;
10281;SDS011;5186;59.472;18.048;2023-07-02T07:39:58;2.97;;;2.60;;
10281;SDS011;5186;59.472;18.048;2023-07-02T07:42:24;3.83;;;2.70;;
10281;SDS011;5186;59.472;18.048;2023-07-02T07:44:49;3.17;;;2.57;;
10281;SDS011;5186;59.472;18.048;2023-07-02T07:47:15;4.10;;;3.00;;
10281;SDS011;5186;59.472;18.048;2023-07-02T07:49:40;3.93;;;2.97;;
10281;SDS011;5186;59.472;18.048;2023-07-02T07:52:07;2.77;;;2.57;;
10281;SDS011;5186;59.472;18.048;2023-07-02T07:54:33;3.10;;;2.80;;
10281;SDS011;5186;59.472;18.048;2023-07-02T07:57:02;3.97;;;2.73;;
10281;SDS011;5186;59.472;18.048;2023-07-02T07:59:28;2.87;;;2.33;;
10281;SDS011;5186;59.472;18.048;2023-07-02T08:02:01;3.13;;;2.60;;
10281;SDS011;5186;59.472;18.048;2023-07-02T08:04:27;4.90;;;2.60;;
10281;SDS011;5186;59.472;18.048;2023-07-02T08:06:53;3.57;;;2.97;;
10281;SDS011;5186;59.472;18.048;2023-07-02T08:09:19;2.83;;;2.63;;
10281;SDS011;5186;59.472;18.048;2023-07-02T08:11:46;3.57;;;3.17;;
10281;SDS011;5186;59.472;18.048;2023-07-02T08:14:11;3.77;;;2.90;;
10281;SDS011;5186;59.472;18.048;2023-07-02T08:16:37;4.00;;;3.40;;
10281;SDS011;5186;59.472;18.048;2023-07-02T08:19:03;4.70;;;3.33;;
10281;SDS011;5186;59.472;18.048;2023-07-02T08:21:28;5.00;;;3.60;;
10281;SDS011;5186;59.472;18.048;2023-07-02T08:23:54;3.40;;;3.10;;
10281;SDS011;5186;59.472;18.048;2023-07-02T08:26:20;3.80;;;3.27;;
10281;SDS011;5186;59.472;18.048;2023-07-02T08:28:45;5.23;;;3.70;;
10281;SDS011;5186;59.472;18.048;2023-07-02T08:31:11;4.30;;;3.30;;
10281;SDS011;5186;59.472;18.048;2023-07-02T08:33:36;3.40;;;3.07;;
10281;SDS011;5186;59.472;18.048;2023-07-02T08:36:02;5.37;;;3.80;;
10281;SDS011;5186;59.472;18.048;2023-07-02T08:38:28;4.37;;;3.47;;
10281;SDS011;5186;59.472;18.048;2023-07-02T08:40:53;5.60;;;3.87;;
10281;SDS011;5186;59.472;18.048;2023-07-02T08:43:19;6.50;;;3.87;;
10281;SDS011;5186;59.472;18.048;2023-07-02T08:45:44;4.67;;;3.53;;
10281;SDS011;5186;59.472;18.048;2023-07-02T08:48:10;5.93;;;4.07;;
10281;SDS011;5186;59.472;18.048;2023-07-02T08:50:36;6.53;;;4.10;;
10281;SDS011;5186;59.472;18.048;2023-07-02T08:53:02;4.27;;;3.70;;
10281;SDS011;5186;59.472;18.048;2023-07-02T08:55:27;4.97;;;4.17;;
10281;SDS011;5186;59.472;18.048;2023-07-02T08:57:55;4.30;;;3.90;;
10281;SDS011;5186;59.472;18.048;2023-07-02T09:00:25;5.03;;;4.33;;
10281;SDS011;5186;59.472;18.048;2023-07-02T09:02:51;6.23;;;4.40;;
10281;SDS011;5186;59.472;18.048;2023-07-02T09:05:17;4.23;;;3.67;;
10281;SDS011;5186;59.472;18.048;2023-07-02T09:07:43;6.80;;;4.43;;
10281;SDS011;5186;59.472;18.048;2023-07-02T09:10:25;4.87;;;4.37;;
10281;SDS011;5186;59.472;18.048;2023-07-02T09:13:02;8.60;;;4.43;;
10281;SDS011;5186;59.472;18.048;2023-07-02T09:15:40;5.03;;;4.10;;
10281;SDS011;5186;59.472;18.048;2023-07-02T09:18:22;4.97;;;4.27;;
10281;SDS011;5186;59.472;18.048;2023-07-02T09:20:51;5.03;;;4.23;;
10281;SDS011;5186;59.472;18.048;2023-07-02T09:23:18;6.80;;;4.80;;
10281;SDS011;5186;59.472;18.048;2023-07-02T09:25:45;4.63;;;4.20;;
10281;SDS011;5186;59.472;18.048;2023-07-02T09:28:29;6.10;;;4.93;;
10281;SDS011;5186;59.472;18.048;2023-07-02T09:30:55;4.93;;;4.50;;
10281;SDS011;5186;59.472;18.048;2023-07-02T09:33:25;4.90;;;4.37;;
10281;SDS011;5186;59.472;18.048;2023-07-02T09:35:52;6.57;;;4.73;;
10281;SDS011;5186;59.472;18.048;2023-07-02T09:38:19;7.30;;;4.80;;
10281;SDS011;5186;59.472;18.048;2023-07-02T09:40:46;7.27;;;5.13;;
10281;SDS011;5186;59.472;18.048;2023-07-02T09:43:14;6.27;;;4.80;;
10281;SDS011;5186;59.472;18.048;2023-07-02T09:45:44;7.70;;;4.70;;
10281;SDS011;5186;59.472;18.048;2023-07-02T09:48:15;5.17;;;4.67;;
10281;SDS011;5186;59.472;18.048;2023-07-02T09:50:44;7.07;;;4.87;;
10281;SDS011;5186;59.472;18.048;2023-07-02T09:53:11;5.83;;;4.87;;
10281;SDS011;5186;59.472;18.048;2023-07-02T09:55:41;6.07;;;4.97;;
10281;SDS011;5186;59.472;18.048;2023-07-02T09:58:08;5.80;;;4.70;;
10281;SDS011;5186;59.472;18.048;2023-07-02T10:00:35;5.50;;;4.87;;
10281;SDS011;5186;59.472;18.048;2023-07-02T10:03:00;5.40;;;4.10;;
10281;SDS011;5186;59.472;18.048;2023-07-02T10:05:29;6.07;;;4.60;;
10281;SDS011;5186;59.472;18.048;2023-07-02T10:07:57;6.37;;;4.37;;
10281;SDS011;5186;59.472;18.048;2023-07-02T10:10:30;4.80;;;4.07;;
10281;SDS011;5186;59.472;18.048;2023-07-02T10:12:57;6.03;;;4.13;;
10281;SDS011;5186;59.472;18.048;2023-07-02T10:15:29;4.83;;;4.10;;
10281;SDS011;5186;59.472;18.048;2023-07-02T10:17:56;4.57;;;3.97;;
10281;SDS011;5186;59.472;18.048;2023-07-02T10:22:59;4.33;;;3.90;;
10281;SDS011;5186;59.472;18.048;2023-07-02T10:25:31;5.00;;;4.47;;
10281;SDS011;5186;59.472;18.048;2023-07-02T10:27:59;3.80;;;3.40;;
10281;SDS011;5186;59.472;18.048;2023-07-02T10:33:34;4.20;;;3.40;;
10281;SDS011;5186;59.472;18.048;2023-07-02T10:35:53;3.67;;;3.37;;
10281;SDS011;5186;59.472;18.048;2023-07-02T10:38:25;3.37;;;3.03;;
10281;SDS011;5186;59.472;18.048;2023-07-02T10:40:55;3.83;;;3.30;;
10281;SDS011;5186;59.472;18.048;2023-07-02T10:43:28;3.57;;;3.13;;
10281;SDS011;5186;59.472;18.048;2023-07-02T10:45:55;5.67;;;3.77;;
10281;SDS011;5186;59.472;18.048;2023-07-02T10:48:21;3.87;;;3.57;;
10281;SDS011;5186;59.472;18.048;2023-07-02T10:50:47;4.33;;;3.93;;
10281;SDS011;5186;59.472;18.048;2023-07-02T10:53:16;3.70;;;3.40;;
10281;SDS011;5186;59.472;18.048;2023-07-02T10:55:45;4.13;;;3.40;;
10281;SDS011;5186;59.472;18.048;2023-07-02T10:58:18;3.80;;;3.37;;
10281;SDS011;5186;59.472;18.048;2023-07-02T11:00:47;3.50;;;3.20;;
10281;SDS011;5186;59.472;18.048;2023-07-02T11:03:20;4.13;;;3.27;;
10281;SDS011;5186;59.472;18.048;2023-07-02T11:05:47;3.23;;;2.90;;
10281;SDS011;5186;59.472;18.048;2023-07-02T11:08:13;3.73;;;2.73;;
10281;SDS011;5186;59.472;18.048;2023-07-02T11:10:39;3.37;;;2.80;;
10281;SDS011;5186;59.472;18.048;2023-07-02T11:13:15;3.27;;;2.90;;
10281;SDS011;5186;59.472;18.048;2023-07-02T11:15:42;3.57;;;2.97;;
10281;SDS011;5186;59.472;18.048;2023-07-02T11:18:14;3.47;;;3.10;;
10281;SDS011;5186;59.472;18.048;2023-07-02T11:20:41;3.67;;;3.20;;
10281;SDS011;5186;59.472;18.048;2023-07-02T11:23:16;3.47;;;3.17;;
10281;SDS011;5186;59.472;18.048;2023-07-02T11:26:02;3.60;;;3.30;;
10281;SDS011;5186;59.472;18.048;2023-07-02T11:28:28;3.03;;;2.70;;
10281;SDS011;5186;59.472;18.048;2023-07-02T11:30:56;3.20;;;2.70;;
10281;SDS011;5186;59.472;18.048;2023-07-02T11:33:39;3.40;;;3.03;;
10281;SDS011;5186;59.472;18.048;2023-07-02T11:36:05;3.20;;;2.60;;
10281;SDS011;5186;59.472;18.048;2023-07-02T11:38:36;3.17;;;2.67;;
10281;SDS011;5186;59.472;18.048;2023-07-02T11:41:04;3.23;;;2.63;;
10281;SDS011;5186;59.472;18.048;2023-07-02T11:43:30;3.07;;;2.87;;
10281;SDS011;5186;59.472;18.048;2023-07-02T11:45:55;2.60;;;2.40;;
10281;SDS011;5186;59.472;18.048;2023-07-02T11:48:21;3.10;;;2.80;;
10281;SDS011;5186;59.472;18.048;2023-07-02T11:50:46;2.60;;;2.40;;
10281;SDS011;5186;59.472;18.048;2023-07-02T11:53:12;2.87;;;2.63;;
10281;SDS011;5186;59.472;18.048;2023-07-02T11:55:38;4.33;;;2.97;;
10281;SDS011;5186;59.472;18.048;2023-07-02T11:58:04;2.60;;;2.40;;
10281;SDS011;5186;59.472;18.048;2023-07-02T12:00:29;3.20;;;2.80;;
10281;SDS011;5186;59.472;18.048;2023-07-02T12:02:55;3.03;;;2.70;;
10281;SDS011;5186;59.472;18.048;2023-07-02T12:05:20;3.20;;;2.90;;
10281;SDS011;5186;59.472;18.048;2023-07-02T12:07:46;3.33;;;2.60;;
10281;SDS011;5186;59.472;18.048;2023-07-02T12:10:12;2.93;;;2.63;;
10281;SDS011;5186;59.472;18.048;2023-07-02T12:12:37;3.37;;;2.80;;
10281;SDS011;5186;59.472;18.048;2023-07-02T12:15:03;2.83;;;2.53;;
10281;SDS011;5186;59.472;18.048;2023-07-02T12:17:29;2.43;;;2.23;;
10281;SDS011;5186;59.472;18.048;2023-07-02T12:19:54;2.90;;;2.60;;
10281;SDS011;5186;59.472;18.048;2023-07-02T12:22:20;3.57;;;2.53;;
10281;SDS011;5186;59.472;18.048;2023-07-02T12:24:47;3.97;;;2.90;;
10281;SDS011;5186;59.472;18.048;2023-07-02T12:27:15;3.70;;;3.10;;
10281;SDS011;5186;59.472;18.048;2023-07-02T12:29:40;3.30;;;3.00;;
10281;SDS011;5186;59.472;18.048;2023-07-02T12:32:06;4.40;;;3.27;;
10281;SDS011;5186;59.472;18.048;2023-07-02T12:34:32;3.87;;;3.50;;
10281;SDS011;5186;59.472;18.048;2023-07-02T12:36:57;7.37;;;3.37;;
10281;SDS011;5186;59.472;18.048;2023-07-02T12:39:23;5.73;;;3.50;;
10281;SDS011;5186;59.472;18.048;2023-07-02T12:41:49;3.67;;;3.37;;
10281;SDS011;5186;59.472;18.048;2023-07-02T12:44:14;4.33;;;3.23;;
10281;SDS011;5186;59.472;18.048;2023-07-02T12:46:40;4.00;;;3.50;;
10281;SDS011;5186;59.472;18.048;2023-07-02T12:49:06;4.03;;;3.27;;
10281;SDS011;5186;59.472;18.048;2023-07-02T12:51:31;5.13;;;3.50;;
10281;SDS011;5186;59.472;18.048;2023-07-02T12:53:57;4.30;;;3.67;;
10281;SDS011;5186;59.472;18.048;2023-07-02T12:56:23;4.00;;;3.60;;
10281;SDS011;5186;59.472;18.048;2023-07-02T12:58:48;3.93;;;3.50;;
10281;SDS011;5186;59.472;18.048;2023-07-02T13:01:16;4.63;;;3.60;;
10281;SDS011;5186;59.472;18.048;2023-07-02T13:03:45;4.63;;;3.80;;
10281;SDS011;5186;59.472;18.048;2023-07-02T13:06:12;5.47;;;3.87;;
10281;SDS011;5186;59.472;18.048;2023-07-02T13:08:38;5.33;;;4.10;;
10281;SDS011;5186;59.472;18.048;2023-07-02T13:11:03;3.90;;;3.50;;
10281;SDS011;5186;59.472;18.048;2023-07-02T13:13:29;6.03;;;4.40;;
10281;SDS011;5186;59.472;18.048;2023-07-02T13:15:54;5.63;;;4.07;;
10281;SDS011;5186;59.472;18.048;2023-07-02T13:18:20;4.53;;;4.13;;
10281;SDS011;5186;59.472;18.048;2023-07-02T13:20:45;5.93;;;4.27;;
10281;SDS011;5186;59.472;18.048;2023-07-02T13:23:11;6.37;;;4.60;;
10281;SDS011;5186;59.472;18.048;2023-07-02T13:25:37;6.33;;;5.43;;
10281;SDS011;5186;59.472;18.048;2023-07-02T13:28:02;6.93;;;5.50;;
10281;SDS011;5186;59.472;18.048;2023-07-02T13:30:28;9.67;;;5.97;;
10281;SDS011;5186;59.472;18.048;2023-07-02T13:32:55;6.63;;;6.00;;
10281;SDS011;5186;59.472;18.048;2023-07-02T13:35:21;6.30;;;5.70;;
10281;SDS011;5186;59.472;18.048;2023-07-02T13:37:47;5.77;;;5.23;;
10281;SDS011;5186;59.472;18.048;2023-07-02T13:40:13;5.70;;;5.10;;
10281;SDS011;5186;59.472;18.048;2023-07-02T13:42:40;6.17;;;5.53;;
10281;SDS011;5186;59.472;18.048;2023-07-02T13:45:07;5.80;;;5.07;;
10281;SDS011;5186;59.472;18.048;2023-07-02T13:47:34;6.00;;;5.13;;
10281;SDS011;5186;59.472;18.048;2023-07-02T13:50:00;5.63;;;4.90;;
10281;SDS011;5186;59.472;18.048;2023-07-02T13:52:26;5.10;;;4.60;;
10281;SDS011;5186;59.472;18.048;2023-07-02T13:54:52;7.87;;;4.93;;
10281;SDS011;5186;59.472;18.048;2023-07-02T13:57:17;5.80;;;5.27;;
10281;SDS011;5186;59.472;18.048;2023-07-02T13:59:43;5.87;;;4.70;;
10281;SDS011;5186;59.472;18.048;2023-07-02T14:02:08;5.40;;;4.80;;
10281;SDS011;5186;59.472;18.048;2023-07-02T14:04:34;6.17;;;4.77;;
10281;SDS011;5186;59.472;18.048;2023-07-02T14:07:00;5.43;;;4.63;;
10281;SDS011;5186;59.472;18.048;2023-07-02T14:09:25;5.33;;;4.70;;
10281;SDS011;5186;59.472;18.048;2023-07-02T14:11:51;6.07;;;4.30;;
10281;SDS011;5186;59.472;18.048;2023-07-02T14:14:16;8.27;;;4.97;;
10281;SDS011;5186;59.472;18.048;2023-07-02T14:16:42;7.43;;;4.70;;
10281;SDS011;5186;59.472;18.048;2023-07-02T14:19:08;4.50;;;4.10;;
10281;SDS011;5186;59.472;18.048;2023-07-02T14:21:33;5.43;;;4.20;;
10281;SDS011;5186;59.472;18.048;2023-07-02T14:23:59;6.10;;;4.70;;
10281;SDS011;5186;59.472;18.048;2023-07-02T14:26:24;5.77;;;4.23;;
10281;SDS011;5186;59.472;18.048;2023-07-02T14:28:50;6.50;;;4.20;;
10281;SDS011;5186;59.472;18.048;2023-07-02T14:31:15;5.77;;;4.20;;
10281;SDS011;5186;59.472;18.048;2023-07-02T14:33:41;4.40;;;4.00;;
10281;SDS011;5186;59.472;18.048;2023-07-02T14:36:07;5.50;;;3.90;;
10281;SDS011;5186;59.472;18.048;2023-07-02T14:38:33;4.00;;;3.70;;
10281;SDS011;5186;59.472;18.048;2023-07-02T14:40:59;4.17;;;3.77;;
10281;SDS011;5186;59.472;18.048;2023-07-02T14:43:27;4.13;;;3.23;;
10281;SDS011;5186;59.472;18.048;2023-07-02T14:45:55;4.50;;;3.30;;
10281;SDS011;5186;59.472;18.048;2023-07-02T14:48:22;4.60;;;3.37;;
10281;SDS011;5186;59.472;18.048;2023-07-02T14:50:49;3.87;;;3.23;;
10281;SDS011;5186;59.472;18.048;2023-07-02T14:53:16;4.00;;;3.10;;